sensor_id;sensor_type;location;lat;lon;timestamp;pressure;altitude;pressure_sealevel;temperature;humidity
47883;BME280;37739;50.350;7.578;2023-05-11T00:02:16;99563.50;;;13.42;92.41
47883;BME280;37739;50.350;7.578;2023-05-11T00:04:41;99564.03;;;13.28;92.52
47883;BME280;37739;50.350;7.578;2023-05-11T00:07:06;99560.78;;;13.34;92.79
47883;BME280;37739;50.350;7.578;2023-05-11T00:09:34;99562.56;;;13.38;92.33
47883;BME280;37739;50.350;7.578;2023-05-11T00:12:00;99547.94;;;13.37;92.25
47883;BME280;37739;50.350;7.578;2023-05-11T00:14:27;99547.88;;;13.35;91.98
47883;BME280;37739;50.350;7.578;2023-05-11T00:16:54;99549.69;;;13.38;92.40
47883;BME280;37739;50.350;7.578;2023-05-11T00:19:20;99548.72;;;13.33;92.53
47883;BME280;37739;50.350;7.578;2023-05-11T00:21:47;99548.53;;;13.27;93.07
47883;BME280;37739;50.350;7.578;2023-05-11T00:24:12;99546.34;;;13.06;93.24
47883;BME280;37739;50.350;7.578;2023-05-11T00:26:38;99545.44;;;13.04;93.70
47883;BME280;37739;50.350;7.578;2023-05-11T00:29:05;99546.44;;;13.09;93.57
47883;BME280;37739;50.350;7.578;2023-05-11T00:31:33;99552.38;;;13.06;93.99
47883;BME280;37739;50.350;7.578;2023-05-11T00:33:58;99551.59;;;13.10;94.91
47883;BME280;37739;50.350;7.578;2023-05-11T00:36:24;99554.25;;;13.13;93.47
47883;BME280;37739;50.350;7.578;2023-05-11T00:38:51;99546.50;;;13.12;93.43
47883;BME280;37739;50.350;7.578;2023-05-11T00:41:19;99549.00;;;13.09;93.56
47883;BME280;37739;50.350;7.578;2023-05-11T00:43:47;99552.59;;;13.15;93.22
47883;BME280;37739;50.350;7.578;2023-05-11T00:46:15;99552.53;;;13.14;93.68
47883;BME280;37739;50.350;7.578;2023-05-11T00:48:43;99554.03;;;13.04;94.42
47883;BME280;37739;50.350;7.578;2023-05-11T00:51:09;99548.19;;;13.11;93.36
47883;BME280;37739;50.350;7.578;2023-05-11T00:53:36;99556.56;;;13.03;93.81
47883;BME280;37739;50.350;7.578;2023-05-11T00:56:04;99549.84;;;13.08;94.02
47883;BME280;37739;50.350;7.578;2023-05-11T00:58:30;99551.75;;;13.16;93.80
47883;BME280;37739;50.350;7.578;2023-05-11T01:00:58;99557.81;;;13.20;93.04
47883;BME280;37739;50.350;7.578;2023-05-11T01:03:23;99560.53;;;13.25;92.37
47883;BME280;37739;50.350;7.578;2023-05-11T01:08:42;99560.19;;;13.09;93.51
47883;BME280;37739;50.350;7.578;2023-05-11T01:11:18;99552.31;;;13.03;93.60
47883;BME280;37739;50.350;7.578;2023-05-11T01:13:50;99557.59;;;13.09;94.11
47883;BME280;37739;50.350;7.578;2023-05-11T01:16:19;99556.84;;;13.13;93.34
47883;BME280;37739;50.350;7.578;2023-05-11T01:18:59;99551.69;;;13.13;92.82
47883;BME280;37739;50.350;7.578;2023-05-11T01:21:31;99553.44;;;13.16;93.00
47883;BME280;37739;50.350;7.578;2023-05-11T01:24:19;99550.94;;;13.19;93.06
47883;BME280;37739;50.350;7.578;2023-05-11T01:32:45;99545.53;;;13.08;92.21
47883;BME280;37739;50.350;7.578;2023-05-11T01:35:18;99541.13;;;13.01;92.10
47883;BME280;37739;50.350;7.578;2023-05-11T01:37:50;99548.84;;;13.01;92.20
47883;BME280;37739;50.350;7.578;2023-05-11T01:40:22;99546.91;;;12.92;91.69
47883;BME280;37739;50.350;7.578;2023-05-11T01:43:00;99552.09;;;12.94;92.11
47883;BME280;37739;50.350;7.578;2023-05-11T01:45:31;99547.81;;;12.94;91.74
47883;BME280;37739;50.350;7.578;2023-05-11T01:48:02;99552.00;;;12.91;92.20
47883;BME280;37739;50.350;7.578;2023-05-11T01:50:29;99555.47;;;12.91;91.98
47883;BME280;37739;50.350;7.578;2023-05-11T01:52:59;99553.69;;;12.89;91.78
47883;BME280;37739;50.350;7.578;2023-05-11T01:55:28;99551.97;;;12.88;91.53
47883;BME280;37739;50.350;7.578;2023-05-11T01:57:57;99554.44;;;12.85;91.41
47883;BME280;37739;50.350;7.578;2023-05-11T02:00:24;99557.03;;;12.85;91.40
47883;BME280;37739;50.350;7.578;2023-05-11T02:02:53;99559.50;;;12.80;91.63
47883;BME280;37739;50.350;7.578;2023-05-11T02:05:22;99560.25;;;12.76;91.74
47883;BME280;37739;50.350;7.578;2023-05-11T02:07:48;99558.56;;;12.76;91.62
47883;BME280;37739;50.350;7.578;2023-05-11T02:10:19;99560.25;;;12.76;91.70
47883;BME280;37739;50.350;7.578;2023-05-11T02:12:48;99555.06;;;12.74;91.85
47883;BME280;37739;50.350;7.578;2023-05-11T02:15:16;99557.56;;;12.71;92.33
47883;BME280;37739;50.350;7.578;2023-05-11T02:17:44;99556.69;;;12.71;92.01
47883;BME280;37739;50.350;7.578;2023-05-11T02:20:10;99552.31;;;12.67;92.01
47883;BME280;37739;50.350;7.578;2023-05-11T02:22:36;99558.22;;;12.63;92.02
47883;BME280;37739;50.350;7.578;2023-05-11T02:25:05;99561.47;;;12.55;91.76
47883;BME280;37739;50.350;7.578;2023-05-11T02:27:34;99557.28;;;12.59;92.01
47883;BME280;37739;50.350;7.578;2023-05-11T02:30:04;99563.31;;;12.61;91.67
47883;BME280;37739;50.350;7.578;2023-05-11T02:32:34;99563.13;;;12.53;91.40
47883;BME280;37739;50.350;7.578;2023-05-11T02:35:11;99564.78;;;12.51;91.95
47883;BME280;37739;50.350;7.578;2023-05-11T02:37:42;99561.38;;;12.52;91.70
47883;BME280;37739;50.350;7.578;2023-05-11T02:40:16;99560.38;;;12.46;91.86
47883;BME280;37739;50.350;7.578;2023-05-11T02:42:44;99561.22;;;12.46;92.12
47883;BME280;37739;50.350;7.578;2023-05-11T02:45:14;99562.84;;;12.43;91.55
47883;BME280;37739;50.350;7.578;2023-05-11T02:47:53;99566.28;;;12.42;92.08
47883;BME280;37739;50.350;7.578;2023-05-11T02:50:21;99570.50;;;12.41;92.23
47883;BME280;37739;50.350;7.578;2023-05-11T02:52:48;99572.28;;;12.42;91.92
47883;BME280;37739;50.350;7.578;2023-05-11T02:55:21;99562.81;;;12.41;92.21
47883;BME280;37739;50.350;7.578;2023-05-11T02:57:47;99574.94;;;12.45;92.11
47883;BME280;37739;50.350;7.578;2023-05-11T03:00:13;99568.59;;;12.32;92.52
47883;BME280;37739;50.350;7.578;2023-05-11T03:02:38;99558.41;;;12.37;92.67
47883;BME280;37739;50.350;7.578;2023-05-11T03:05:07;99562.75;;;12.38;92.69
47883;BME280;37739;50.350;7.578;2023-05-11T03:07:32;99563.31;;;12.28;92.34
47883;BME280;37739;50.350;7.578;2023-05-11T03:10:02;99561.78;;;12.34;92.38
47883;BME280;37739;50.350;7.578;2023-05-11T03:12:30;99556.69;;;12.36;92.09
47883;BME280;37739;50.350;7.578;2023-05-11T03:14:58;99559.97;;;12.30;91.72
47883;BME280;37739;50.350;7.578;2023-05-11T03:17:25;99566.63;;;12.24;91.90
47883;BME280;37739;50.350;7.578;2023-05-11T03:19:52;99563.28;;;12.26;91.84
47883;BME280;37739;50.350;7.578;2023-05-11T03:22:19;99560.44;;;12.15;91.48
47883;BME280;37739;50.350;7.578;2023-05-11T03:24:48;99562.94;;;12.14;91.71
47883;BME280;37739;50.350;7.578;2023-05-11T03:27:15;99568.03;;;12.11;91.57
47883;BME280;37739;50.350;7.578;2023-05-11T03:29:42;99569.66;;;12.07;91.75
47883;BME280;37739;50.350;7.578;2023-05-11T03:32:11;99564.50;;;12.07;91.70
47883;BME280;37739;50.350;7.578;2023-05-11T03:34:36;99566.94;;;12.03;91.08
47883;BME280;37739;50.350;7.578;2023-05-11T03:37:05;99569.03;;;11.87;91.29
47883;BME280;37739;50.350;7.578;2023-05-11T03:39:35;99568.13;;;11.85;91.87
47883;BME280;37739;50.350;7.578;2023-05-11T03:42:04;99565.78;;;11.91;91.41
47883;BME280;37739;50.350;7.578;2023-05-11T03:44:31;99565.59;;;11.87;91.37
47883;BME280;37739;50.350;7.578;2023-05-11T03:47:02;99566.34;;;11.83;91.24
47883;BME280;37739;50.350;7.578;2023-05-11T03:49:28;99566.34;;;11.83;91.08
47883;BME280;37739;50.350;7.578;2023-05-11T03:51:56;99564.53;;;11.78;91.16
47883;BME280;37739;50.350;7.578;2023-05-11T03:54:24;99565.41;;;11.79;90.99
47883;BME280;37739;50.350;7.578;2023-05-11T03:56:50;99560.34;;;11.82;91.21
47883;BME280;37739;50.350;7.578;2023-05-11T03:59:17;99566.44;;;11.86;90.75
47883;BME280;37739;50.350;7.578;2023-05-11T04:01:43;99568.88;;;11.81;91.00
47883;BME280;37739;50.350;7.578;2023-05-11T04:04:09;99564.56;;;11.80;90.77
47883;BME280;37739;50.350;7.578;2023-05-11T04:06:34;99572.03;;;11.71;90.91
47883;BME280;37739;50.350;7.578;2023-05-11T04:09:03;99570.38;;;11.73;91.21
47883;BME280;37739;50.350;7.578;2023-05-11T04:11:34;99576.16;;;11.66;90.84
47883;BME280;37739;50.350;7.578;2023-05-11T04:14:02;99572.66;;;11.64;90.54
47883;BME280;37739;50.350;7.578;2023-05-11T04:16:30;99581.16;;;11.61;91.08
47883;BME280;37739;50.350;7.578;2023-05-11T04:18:58;99576.88;;;11.62;90.80
47883;BME280;37739;50.350;7.578;2023-05-11T04:21:23;99576.03;;;11.61;91.12
47883;BME280;37739;50.350;7.578;2023-05-11T04:23:48;99582.88;;;11.62;90.70
47883;BME280;37739;50.350;7.578;2023-05-11T04:26:16;99588.94;;;11.63;90.44
47883;BME280;37739;50.350;7.578;2023-05-11T04:28:41;99581.91;;;11.58;90.44
47883;BME280;37739;50.350;7.578;2023-05-11T04:31:06;99591.28;;;11.56;90.68
47883;BME280;37739;50.350;7.578;2023-05-11T04:33:32;99585.34;;;11.57;90.35
47883;BME280;37739;50.350;7.578;2023-05-11T04:35:58;99590.38;;;11.54;90.27
47883;BME280;37739;50.350;7.578;2023-05-11T04:38:27;99591.78;;;11.45;90.53
47883;BME280;37739;50.350;7.578;2023-05-11T04:40:53;99600.41;;;11.45;90.29
47883;BME280;37739;50.350;7.578;2023-05-11T04:43:20;99593.41;;;11.41;89.97
47883;BME280;37739;50.350;7.578;2023-05-11T04:45:49;99593.41;;;11.41;90.29
47883;BME280;37739;50.350;7.578;2023-05-11T04:48:15;99590.75;;;11.38;90.03
47883;BME280;37739;50.350;7.578;2023-05-11T04:50:41;99583.88;;;11.37;90.61
47883;BME280;37739;50.350;7.578;2023-05-11T04:53:09;99590.03;;;11.42;90.24
47883;BME280;37739;50.350;7.578;2023-05-11T04:55:35;99591.84;;;11.46;89.95
47883;BME280;37739;50.350;7.578;2023-05-11T04:58:07;99591.03;;;11.47;90.04
47883;BME280;37739;50.350;7.578;2023-05-11T05:00:35;99595.28;;;11.47;89.83
47883;BME280;37739;50.350;7.578;2023-05-11T05:03:00;99595.34;;;11.48;89.80
47883;BME280;37739;50.350;7.578;2023-05-11T05:05:26;99598.81;;;11.50;90.17
47883;BME280;37739;50.350;7.578;2023-05-11T05:07:51;99603.22;;;11.54;89.65
47883;BME280;37739;50.350;7.578;2023-05-11T05:10:19;99599.66;;;11.49;89.54
47883;BME280;37739;50.350;7.578;2023-05-11T05:12:44;99603.19;;;11.53;89.81
47883;BME280;37739;50.350;7.578;2023-05-11T05:15:13;99605.47;;;11.44;89.78
47883;BME280;37739;50.350;7.578;2023-05-11T05:17:38;99603.03;;;11.48;89.92
47883;BME280;37739;50.350;7.578;2023-05-11T05:20:04;99607.50;;;11.54;89.51
47883;BME280;37739;50.350;7.578;2023-05-11T05:22:33;99613.59;;;11.57;89.40
47883;BME280;37739;50.350;7.578;2023-05-11T05:25:00;99617.13;;;11.61;89.51
47883;BME280;37739;50.350;7.578;2023-05-11T05:27:28;99612.06;;;11.63;89.35
47883;BME280;37739;50.350;7.578;2023-05-11T05:29:54;99617.88;;;11.57;89.20
47883;BME280;37739;50.350;7.578;2023-05-11T05:32:21;99616.28;;;11.61;89.39
47883;BME280;37739;50.350;7.578;2023-05-11T05:34:47;99617.78;;;11.54;89.48
47883;BME280;37739;50.350;7.578;2023-05-11T05:37:14;99617.88;;;11.58;89.16
47883;BME280;37739;50.350;7.578;2023-05-11T05:39:40;99621.41;;;11.61;89.19
47883;BME280;37739;50.350;7.578;2023-05-11T05:42:05;99623.94;;;11.59;89.51
47883;BME280;37739;50.350;7.578;2023-05-11T05:44:31;99625.84;;;11.66;89.39
47883;BME280;37739;50.350;7.578;2023-05-11T05:46:58;99627.47;;;11.64;88.84
47883;BME280;37739;50.350;7.578;2023-05-11T05:49:26;99627.41;;;11.61;89.21
47883;BME280;37739;50.350;7.578;2023-05-11T05:51:53;99630.16;;;11.67;89.01
47883;BME280;37739;50.350;7.578;2023-05-11T05:54:21;99637.97;;;11.70;88.50
47883;BME280;37739;50.350;7.578;2023-05-11T05:56:46;99636.09;;;11.66;88.61
47883;BME280;37739;50.350;7.578;2023-05-11T05:59:17;99632.59;;;11.63;88.99
47883;BME280;37739;50.350;7.578;2023-05-11T06:01:48;99638.88;;;11.72;88.56
47883;BME280;37739;50.350;7.578;2023-05-11T06:04:13;99630.34;;;11.73;88.91
47883;BME280;37739;50.350;7.578;2023-05-11T06:06:44;99633.97;;;11.80;88.53
47883;BME280;37739;50.350;7.578;2023-05-11T06:09:10;99637.53;;;11.85;88.20
47883;BME280;37739;50.350;7.578;2023-05-11T06:11:36;99636.72;;;11.86;88.14
47883;BME280;37739;50.350;7.578;2023-05-11T06:14:02;99636.09;;;11.93;87.73
47883;BME280;37739;50.350;7.578;2023-05-11T06:16:27;99633.75;;;12.01;87.47
47883;BME280;37739;50.350;7.578;2023-05-11T06:18:55;99647.59;;;12.06;87.14
47883;BME280;37739;50.350;7.578;2023-05-11T06:21:23;99646.91;;;12.12;87.20
47883;BME280;37739;50.350;7.578;2023-05-11T06:23:51;99645.34;;;12.17;86.93
47883;BME280;37739;50.350;7.578;2023-05-11T06:26:18;99643.78;;;12.24;86.76
47883;BME280;37739;50.350;7.578;2023-05-11T06:28:46;99636.28;;;12.30;86.59
47883;BME280;37739;50.350;7.578;2023-05-11T06:31:11;99641.53;;;12.34;86.21
47883;BME280;37739;50.350;7.578;2023-05-11T06:33:37;99645.13;;;12.41;86.43
47883;BME280;37739;50.350;7.578;2023-05-11T06:36:06;99646.19;;;12.48;85.82
47883;BME280;37739;50.350;7.578;2023-05-11T06:38:34;99642.84;;;12.52;86.07
47883;BME280;37739;50.350;7.578;2023-05-11T06:41:02;99637.81;;;12.55;85.93
47883;BME280;37739;50.350;7.578;2023-05-11T06:43:29;99645.63;;;12.60;85.60
47883;BME280;37739;50.350;7.578;2023-05-11T06:46:00;99636.34;;;12.65;85.62
47883;BME280;37739;50.350;7.578;2023-05-11T06:48:27;99633.97;;;12.72;86.04
47883;BME280;37739;50.350;7.578;2023-05-11T06:50:56;99634.06;;;12.77;85.44
47883;BME280;37739;50.350;7.578;2023-05-11T06:53:21;99626.44;;;12.80;85.29
47883;BME280;37739;50.350;7.578;2023-05-11T06:55:49;99631.50;;;12.77;85.19
47883;BME280;37739;50.350;7.578;2023-05-11T06:58:15;99635.88;;;12.81;85.56
47883;BME280;37739;50.350;7.578;2023-05-11T07:00:44;99630.88;;;12.87;85.29
47883;BME280;37739;50.350;7.578;2023-05-11T07:03:11;99627.56;;;12.91;85.36
47883;BME280;37739;50.350;7.578;2023-05-11T07:05:42;99629.25;;;12.91;85.56
47883;BME280;37739;50.350;7.578;2023-05-11T07:08:09;99634.34;;;12.88;86.02
47883;BME280;37739;50.350;7.578;2023-05-11T07:10:35;99634.53;;;12.95;85.48
47883;BME280;37739;50.350;7.578;2023-05-11T07:13:00;99629.59;;;13.05;85.35
47883;BME280;37739;50.350;7.578;2023-05-11T07:15:25;99634.78;;;13.06;85.14
47883;BME280;37739;50.350;7.578;2023-05-11T07:17:53;99634.72;;;13.05;84.90
47883;BME280;37739;50.350;7.578;2023-05-11T07:20:19;99627.94;;;13.07;84.84
47883;BME280;37739;50.350;7.578;2023-05-11T07:22:46;99630.53;;;13.08;85.20
47883;BME280;37739;50.350;7.578;2023-05-11T07:25:12;99636.75;;;13.16;85.19
47883;BME280;37739;50.350;7.578;2023-05-11T07:27:37;99634.41;;;13.27;84.66
47883;BME280;37739;50.350;7.578;2023-05-11T07:30:08;99636.34;;;13.34;83.91
47883;BME280;37739;50.350;7.578;2023-05-11T07:32:38;99630.56;;;13.45;84.05
47883;BME280;37739;50.350;7.578;2023-05-11T07:35:03;99629.66;;;13.43;84.68
47883;BME280;37739;50.350;7.578;2023-05-11T07:37:31;99634.28;;;13.21;85.16
47883;BME280;37739;50.350;7.578;2023-05-11T07:39:59;99633.72;;;13.33;85.03
47883;BME280;37739;50.350;7.578;2023-05-11T07:42:27;99634.25;;;13.56;83.64
47883;BME280;37739;50.350;7.578;2023-05-11T07:44:52;99637.84;;;13.63;83.53
47883;BME280;37739;50.350;7.578;2023-05-11T07:47:20;99634.72;;;13.78;82.42
47883;BME280;37739;50.350;7.578;2023-05-11T07:49:47;99638.44;;;13.90;82.17
47883;BME280;37739;50.350;7.578;2023-05-11T07:52:16;99640.34;;;14.01;82.21
47883;BME280;37739;50.350;7.578;2023-05-11T07:54:43;99642.34;;;14.14;81.97
47883;BME280;37739;50.350;7.578;2023-05-11T07:57:11;99638.28;;;14.25;81.96
47883;BME280;37739;50.350;7.578;2023-05-11T07:59:40;99641.81;;;14.30;80.89
47883;BME280;37739;50.350;7.578;2023-05-11T08:02:08;99635.31;;;14.05;81.57
47883;BME280;37739;50.350;7.578;2023-05-11T08:04:36;99640.19;;;13.93;82.66
47883;BME280;37739;50.350;7.578;2023-05-11T08:07:02;99645.06;;;13.79;83.00
47883;BME280;37739;50.350;7.578;2023-05-11T08:09:29;99641.72;;;13.83;83.18
47883;BME280;37739;50.350;7.578;2023-05-11T08:11:58;99635.19;;;14.01;82.73
47883;BME280;37739;50.350;7.578;2023-05-11T08:14:28;99632.84;;;14.11;82.54
47883;BME280;37739;50.350;7.578;2023-05-11T08:16:53;99639.09;;;14.23;82.08
47883;BME280;37739;50.350;7.578;2023-05-11T08:19:23;99631.47;;;14.29;82.33
47883;BME280;37739;50.350;7.578;2023-05-11T08:21:49;99632.56;;;14.43;81.57
47883;BME280;37739;50.350;7.578;2023-05-11T08:24:14;99631.72;;;14.43;81.80
47883;BME280;37739;50.350;7.578;2023-05-11T08:26:42;99636.97;;;14.47;81.68
47883;BME280;37739;50.350;7.578;2023-05-11T08:29:09;99641.25;;;14.47;81.20
47883;BME280;37739;50.350;7.578;2023-05-11T08:31:37;99642.72;;;14.32;80.82
47883;BME280;37739;50.350;7.578;2023-05-11T08:34:08;99639.84;;;14.17;80.03
47883;BME280;37739;50.350;7.578;2023-05-11T08:36:35;99652.56;;;14.09;81.22
47883;BME280;37739;50.350;7.578;2023-05-11T08:39:01;99644.88;;;14.12;81.67
47883;BME280;37739;50.350;7.578;2023-05-11T08:41:26;99647.41;;;14.09;82.41
47883;BME280;37739;50.350;7.578;2023-05-11T08:43:53;99648.34;;;14.13;82.20
47883;BME280;37739;50.350;7.578;2023-05-11T08:46:20;99643.81;;;14.01;83.14
47883;BME280;37739;50.350;7.578;2023-05-11T08:48:47;99642.78;;;13.93;81.96
47883;BME280;37739;50.350;7.578;2023-05-11T08:51:14;99648.16;;;14.04;81.71
47883;BME280;37739;50.350;7.578;2023-05-11T08:53:42;99653.25;;;14.01;80.70
47883;BME280;37739;50.350;7.578;2023-05-11T08:56:08;99645.50;;;13.99;82.51
47883;BME280;37739;50.350;7.578;2023-05-11T08:58:34;99654.88;;;13.97;81.18
47883;BME280;37739;50.350;7.578;2023-05-11T09:01:02;99647.97;;;13.94;80.93
47883;BME280;37739;50.350;7.578;2023-05-11T09:03:28;99657.69;;;14.08;81.58
47883;BME280;37739;50.350;7.578;2023-05-11T09:05:57;99650.19;;;14.19;80.02
47883;BME280;37739;50.350;7.578;2023-05-11T09:08:26;99647.53;;;14.16;80.60
47883;BME280;37739;50.350;7.578;2023-05-11T09:10:55;99650.50;;;14.36;80.62
47883;BME280;37739;50.350;7.578;2023-05-11T09:13:21;99653.31;;;14.48;79.94
47883;BME280;37739;50.350;7.578;2023-05-11T09:15:48;99650.75;;;14.48;80.23
47883;BME280;37739;50.350;7.578;2023-05-11T09:18:18;99646.22;;;14.82;79.14
47883;BME280;37739;50.350;7.578;2023-05-11T09:20:44;99646.63;;;15.06;76.60
47883;BME280;37739;50.350;7.578;2023-05-11T09:23:14;99641.78;;;15.28;76.43
47883;BME280;37739;50.350;7.578;2023-05-11T09:25:45;99641.78;;;15.26;73.82
47883;BME280;37739;50.350;7.578;2023-05-11T09:28:12;99639.28;;;15.32;76.02
47883;BME280;37739;50.350;7.578;2023-05-11T09:30:43;99646.34;;;15.43;76.46
47883;BME280;37739;50.350;7.578;2023-05-11T09:33:11;99648.31;;;15.59;75.31
47883;BME280;37739;50.350;7.578;2023-05-11T09:35:36;99647.72;;;15.77;75.15
47883;BME280;37739;50.350;7.578;2023-05-11T09:38:10;99648.88;;;15.41;72.48
47883;BME280;37739;50.350;7.578;2023-05-11T09:40:49;99641.78;;;15.26;72.89
47883;BME280;37739;50.350;7.578;2023-05-11T09:43:23;99642.13;;;15.51;71.99
47883;BME280;37739;50.350;7.578;2023-05-11T09:45:53;99640.00;;;15.24;71.54
47883;BME280;37739;50.350;7.578;2023-05-11T09:50:51;99646.66;;;15.08;72.45
47883;BME280;37739;50.350;7.578;2023-05-11T09:56:02;99639.28;;;15.32;72.92
47883;BME280;37739;50.350;7.578;2023-05-11T09:58:50;99636.38;;;15.69;70.70
47883;BME280;37739;50.350;7.578;2023-05-11T10:01:18;99641.44;;;15.61;69.25
47883;BME280;37739;50.350;7.578;2023-05-11T10:03:51;99642.59;;;15.80;70.17
47883;BME280;37739;50.350;7.578;2023-05-11T10:06:22;99637.84;;;15.51;70.02
47883;BME280;37739;50.350;7.578;2023-05-11T10:08:47;99636.13;;;15.52;71.60
47883;BME280;37739;50.350;7.578;2023-05-11T10:11:16;99634.47;;;15.59;72.38
47883;BME280;37739;50.350;7.578;2023-05-11T10:13:43;99628.44;;;15.57;70.91
47883;BME280;37739;50.350;7.578;2023-05-11T10:16:11;99626.69;;;15.54;70.28
47883;BME280;37739;50.350;7.578;2023-05-11T10:18:37;99624.91;;;15.50;70.81
47883;BME280;37739;50.350;7.578;2023-05-11T10:21:05;99629.78;;;15.31;71.68
47883;BME280;37739;50.350;7.578;2023-05-11T10:23:31;99623.75;;;15.31;73.40
47883;BME280;37739;50.350;7.578;2023-05-11T10:26:03;99624.97;;;15.56;72.91
47883;BME280;37739;50.350;7.578;2023-05-11T10:28:28;99625.84;;;15.55;71.34
47883;BME280;37739;50.350;7.578;2023-05-11T10:30:54;99622.56;;;15.70;71.52
47883;BME280;37739;50.350;7.578;2023-05-11T10:33:23;99620.28;;;15.88;70.12
47883;BME280;37739;50.350;7.578;2023-05-11T10:35:51;99625.50;;;15.93;70.52
47883;BME280;37739;50.350;7.578;2023-05-11T10:38:22;99617.81;;;15.98;71.23
47883;BME280;37739;50.350;7.578;2023-05-11T10:40:50;99614.44;;;16.03;70.30
47883;BME280;37739;50.350;7.578;2023-05-11T10:55:12;99609.03;;;16.63;66.83
47883;BME280;37739;50.350;7.578;2023-05-11T10:57:57;99607.34;;;16.69;66.68
47883;BME280;37739;50.350;7.578;2023-05-11T11:03:12;99605.91;;;17.02;65.34
47883;BME280;37739;50.350;7.578;2023-05-11T11:05:38;99606.66;;;16.87;65.12
47883;BME280;37739;50.350;7.578;2023-05-11T11:08:06;99609.25;;;16.89;65.96
47883;BME280;37739;50.350;7.578;2023-05-11T11:13:09;99606.91;;;17.20;65.42
47883;BME280;37739;50.350;7.578;2023-05-11T11:18:25;99600.88;;;17.24;65.62
47883;BME280;37739;50.350;7.578;2023-05-11T11:20:54;99596.66;;;17.37;65.22
47883;BME280;37739;50.350;7.578;2023-05-11T11:26:04;99597.63;;;17.56;64.18
47883;BME280;37739;50.350;7.578;2023-05-11T11:31:26;99589.09;;;17.81;60.94
47883;BME280;37739;50.350;7.578;2023-05-11T11:33:52;99586.47;;;17.74;61.34
47883;BME280;37739;50.350;7.578;2023-05-11T11:42:36;99589.00;;;17.64;59.08
47883;BME280;37739;50.350;7.578;2023-05-11T11:45:29;99585.72;;;17.90;61.13
47883;BME280;37739;50.350;7.578;2023-05-11T11:48:14;99582.34;;;18.17;61.53
47883;BME280;37739;50.350;7.578;2023-05-11T11:50:46;99578.00;;;18.18;61.74
47883;BME280;37739;50.350;7.578;2023-05-11T11:53:56;99569.34;;;18.16;60.30
47883;BME280;37739;50.350;7.578;2023-05-11T11:55:58;99571.88;;;17.97;60.84
47883;BME280;37739;50.350;7.578;2023-05-11T12:01:12;99571.94;;;18.11;61.02
47883;BME280;37739;50.350;7.578;2023-05-11T12:03:38;99573.66;;;18.11;60.07
47883;BME280;37739;50.350;7.578;2023-05-11T12:06:07;99573.69;;;18.28;60.81
47883;BME280;37739;50.350;7.578;2023-05-11T12:08:37;99560.72;;;18.34;59.65
47883;BME280;37739;50.350;7.578;2023-05-11T12:11:03;99569.34;;;18.17;59.14
47883;BME280;37739;50.350;7.578;2023-05-11T12:13:32;99571.06;;;18.12;59.42
47883;BME280;37739;50.350;7.578;2023-05-11T12:16:14;99565.88;;;18.01;56.00
47883;BME280;37739;50.350;7.578;2023-05-11T12:18:41;99567.53;;;17.89;58.48
47883;BME280;37739;50.350;7.578;2023-05-11T12:21:19;99566.69;;;17.93;58.89
47883;BME280;37739;50.350;7.578;2023-05-11T12:23:56;99560.63;;;17.92;58.63
47883;BME280;37739;50.350;7.578;2023-05-11T12:26:23;99558.13;;;18.23;58.82
47883;BME280;37739;50.350;7.578;2023-05-11T12:29:05;99561.56;;;18.16;59.30
47883;BME280;37739;50.350;7.578;2023-05-11T12:31:39;99558.97;;;18.17;60.52
47883;BME280;37739;50.350;7.578;2023-05-11T12:34:18;99558.91;;;17.96;59.24
47883;BME280;37739;50.350;7.578;2023-05-11T12:36:47;99564.09;;;17.94;60.04
47883;BME280;37739;50.350;7.578;2023-05-11T12:39:24;99551.13;;;17.97;58.49
47883;BME280;37739;50.350;7.578;2023-05-11T12:41:52;99558.06;;;18.00;58.67
47883;BME280;37739;50.350;7.578;2023-05-11T12:44:24;99554.59;;;17.96;59.28
47883;BME280;37739;50.350;7.578;2023-05-11T12:46:52;99551.13;;;17.93;59.97
47883;BME280;37739;50.350;7.578;2023-05-11T12:49:19;99550.25;;;17.97;59.67
47883;BME280;37739;50.350;7.578;2023-05-11T12:52:03;99544.13;;;17.82;59.11
47883;BME280;37739;50.350;7.578;2023-05-11T12:54:48;99549.38;;;17.89;58.47
47883;BME280;37739;50.350;7.578;2023-05-11T12:57:23;99539.00;;;17.89;58.71
47883;BME280;37739;50.350;7.578;2023-05-11T13:00:13;99537.28;;;17.98;58.76
47883;BME280;37739;50.350;7.578;2023-05-11T13:02:48;99532.16;;;18.21;58.97
47883;BME280;37739;50.350;7.578;2023-05-11T13:05:14;99540.81;;;18.19;59.87
47883;BME280;37739;50.350;7.578;2023-05-11T13:07:40;99534.72;;;18.11;59.27
47883;BME280;37739;50.350;7.578;2023-05-11T13:10:11;99539.00;;;17.90;61.69
47883;BME280;37739;50.350;7.578;2023-05-11T13:12:53;99531.13;;;17.79;60.21
47883;BME280;37739;50.350;7.578;2023-05-11T13:15:23;99531.13;;;17.73;59.07
47883;BME280;37739;50.350;7.578;2023-05-11T13:17:59;99532.00;;;17.81;60.39
47883;BME280;37739;50.350;7.578;2023-05-11T13:20:31;99525.97;;;17.82;59.69
47883;BME280;37739;50.350;7.578;2023-05-11T13:23:15;99524.31;;;17.97;60.38
47883;BME280;37739;50.350;7.578;2023-05-11T13:28:19;99529.44;;;17.83;59.14
47883;BME280;37739;50.350;7.578;2023-05-11T13:30:46;99525.03;;;17.66;59.59
47883;BME280;37739;50.350;7.578;2023-05-11T13:33:14;99525.91;;;17.64;60.64
47883;BME280;37739;50.350;7.578;2023-05-11T13:35:42;99530.22;;;17.66;60.53
47883;BME280;37739;50.350;7.578;2023-05-11T13:38:11;99527.69;;;17.80;60.12
47883;BME280;37739;50.350;7.578;2023-05-11T13:40:36;99526.00;;;17.87;59.13
47883;BME280;37739;50.350;7.578;2023-05-11T13:43:04;99521.72;;;18.03;59.12
47883;BME280;37739;50.350;7.578;2023-05-11T13:45:32;99522.56;;;17.99;59.65
47883;BME280;37739;50.350;7.578;2023-05-11T13:47:57;99522.56;;;17.99;59.81
47883;BME280;37739;50.350;7.578;2023-05-11T13:50:24;99522.53;;;17.85;58.73
47883;BME280;37739;50.350;7.578;2023-05-11T13:52:50;99512.19;;;17.97;59.86
47883;BME280;37739;50.350;7.578;2023-05-11T13:55:21;99512.25;;;18.23;59.05
47883;BME280;37739;50.350;7.578;2023-05-11T13:57:49;99512.19;;;17.93;58.24
47883;BME280;37739;50.350;7.578;2023-05-11T14:00:17;99515.66;;;18.07;58.80